CPX972 Details

Departure: Schiphol International Airport (EHAM)
Arrival: Chicago O'Hare International Airport (KORD) at N/A
Route: BERGI M90 NEXUS UP59 BALIX 6120N N6230 6340N 6350N LIBOR N866A RODBO SEMTO VEPTU PEMLU SSM WYNDE9
Notes: SEASONAL FLIGHT | PERISHABLE CARGO


Current Weather Information
EHAM 171655Z 24016KT 9999 FEW020 20/14 Q1005 NOSIG
KORD 171651Z 19006KT 1 1/4SM R10L/2800VP6000FT +TSRA BKN016CB BKN023 BKN050 OVC130 23/21 A2993 RMK AO2 LTG DSNT S AND SW TSB44 SLP130 OCNL LTGICCC OHD TS OHD MOV NE P0015 T02280206